createdAt,value
2017-05-18T00:00:47.030Z,88.38
2017-05-18T00:01:58.061Z,87.99
2017-05-18T00:03:09.085Z,88.09
2017-05-18T00:04:20.169Z,88.62
2017-05-18T00:05:31.247Z,88.53
2017-05-18T00:06:42.463Z,88.62
2017-05-18T00:07:53.512Z,88.04
2017-05-18T00:09:04.543Z,88.43
2017-05-18T00:10:15.563Z,88.43
2017-05-18T00:11:26.627Z,88.04
2017-05-18T00:12:37.648Z,88.33
2017-05-18T00:13:48.877Z,88.43
2017-05-18T00:14:59.928Z,88.53
2017-05-18T00:16:10.985Z,88.62
2017-05-18T00:17:22.050Z,88.81
2017-05-18T00:18:33.058Z,88.81
2017-05-18T00:19:44.281Z,89.2
2017-05-18T00:20:55.293Z,89.1
2017-05-18T00:22:06.329Z,89.1
2017-05-18T00:23:17.393Z,89.01
2017-05-18T00:24:28.423Z,89.49
2017-05-18T00:25:39.448Z,89.39
2017-05-18T00:26:50.464Z,89.29
2017-05-18T00:28:01.481Z,89.39
2017-05-18T00:29:12.542Z,89.39
2017-05-18T00:30:23.567Z,88.71
2017-05-18T00:31:34.579Z,89.2
2017-05-18T00:32:45.600Z,89.1
2017-05-18T00:33:56.616Z,89.58
2017-05-18T00:35:07.668Z,89.39
2017-05-18T00:36:18.684Z,89.39
2017-05-18T00:37:29.902Z,89.49
2017-05-18T00:38:40.925Z,89.29
2017-05-18T00:39:52.151Z,89.78
2017-05-18T00:41:03.210Z,89.83
2017-05-18T00:42:14.237Z,89.83
2017-05-18T00:43:25.267Z,89.87
2017-05-18T00:44:36.291Z,89.92
2017-05-18T00:45:47.366Z,89.92
2017-05-18T00:46:58.437Z,90.06
2017-05-18T00:48:09.448Z,89.83
2017-05-18T00:49:20.864Z,90.12
2017-05-18T00:50:31.895Z,89.64
2017-05-18T00:51:42.922Z,89.83
2017-05-18T00:52:53.985Z,89.64
2017-05-18T00:54:05.015Z,89.83
2017-05-18T00:55:16.045Z,89.64
2017-05-18T00:56:27.056Z,90.12
2017-05-18T00:57:38.078Z,89.92
2017-05-18T00:58:49.151Z,90.41
2017-05-18T01:00:00.374Z,90.02
2017-05-18T01:01:11.392Z,90.02
2017-05-18T01:02:22.407Z,90.02
2017-05-18T01:03:33.425Z,90.02
2017-05-18T01:04:44.502Z,90.41
2017-05-18T01:05:55.574Z,90.21
2017-05-18T01:07:06.612Z,90.02
2017-05-18T01:08:17.626Z,90.12
2017-05-18T01:09:28.648Z,89.92
2017-05-18T01:10:39.659Z,90.12
2017-05-18T01:11:50.870Z,90.12
2017-05-18T01:13:01.891Z,90.12
2017-05-18T01:14:12.907Z,89.83
2017-05-18T01:15:23.971Z,90.21
2017-05-18T01:16:34.985Z,90.12
2017-05-18T01:17:46.006Z,89.92
2017-05-18T01:18:57.237Z,90.21
2017-05-18T01:20:08.259Z,90.21
2017-05-18T01:21:19.347Z,90.12
2017-05-18T01:22:30.581Z,90.21
2017-05-18T01:23:41.670Z,90.5
2017-05-18T01:24:52.891Z,90.21
2017-05-18T01:26:04.116Z,90.41
2017-05-18T01:27:15.194Z,90.12
2017-05-18T01:28:26.220Z,90.12
2017-05-18T01:29:37.444Z,90.21
2017-05-18T01:30:48.449Z,90.59
2017-05-18T01:31:59.668Z,90.79
2017-05-18T01:33:10.931Z,90.94
2017-05-18T01:34:21.950Z,90.79
2017-05-18T01:35:32.983Z,90.17
2017-05-18T01:36:43.994Z,90.12
2017-05-18T01:37:55.432Z,91.03
2017-05-18T01:39:06.707Z,90.94
2017-05-18T01:40:17.723Z,90.75
2017-05-18T01:41:28.736Z,90.55
2017-05-18T01:42:39.945Z,90.55
2017-05-18T01:43:50.962Z,91.03
2017-05-18T01:45:02.028Z,90.75
2017-05-18T01:46:13.048Z,90.75
2017-05-18T01:47:24.065Z,90.75
2017-05-18T01:48:35.082Z,90.75
2017-05-18T01:49:46.099Z,90.65
2017-05-18T01:50:57.167Z,90.75
2017-05-18T01:52:08.191Z,90.84
2017-05-18T01:53:19.215Z,90.65
2017-05-18T01:54:30.235Z,90.65
2017-05-18T01:55:41.313Z,90.65
2017-05-18T01:56:52.594Z,90.84
2017-05-18T01:58:03.613Z,90.65
2017-05-18T01:59:14.635Z,90.65
2017-05-18T02:00:25.653Z,91.52
2017-05-18T02:01:36.919Z,90.84
2017-05-18T02:02:48.138Z,91.22
2017-05-18T02:03:59.379Z,91.61
2017-05-18T02:05:10.407Z,91.13
2017-05-18T02:06:21.442Z,91.32
2017-05-18T02:07:32.713Z,91.13
2017-05-18T02:08:43.737Z,91.03
2017-05-18T02:09:54.773Z,91.22
2017-05-18T02:11:06.005Z,90.65
2017-05-18T02:12:17.023Z,90.55
2017-05-18T02:13:28.101Z,90.75
2017-05-18T02:14:39.324Z,90.94
2017-05-18T02:15:50.336Z,90.94
2017-05-18T02:17:01.547Z,89.98
2017-05-18T02:18:12.565Z,90.75
2017-05-18T02:19:23.640Z,90.94
2017-05-18T02:20:34.648Z,90.55
2017-05-18T02:21:45.678Z,90.65
2017-05-18T02:22:56.691Z,91.22
2017-05-18T02:24:07.916Z,90.8
2017-05-18T02:25:18.971Z,91.32
2017-05-18T02:26:30.203Z,91.08
2017-05-18T02:27:41.229Z,91.42
2017-05-18T02:28:52.257Z,92.14
2017-05-18T02:30:03.482Z,91.85
2017-05-18T02:31:14.554Z,92.05
2017-05-18T02:32:25.575Z,91.37
2017-05-18T02:33:36.594Z,92.24
2017-05-18T02:34:47.800Z,92.43
2017-05-18T02:35:58.816Z,92.43
2017-05-18T02:37:10.082Z,92.14
2017-05-18T02:38:21.100Z,91.66
2017-05-18T02:39:32.132Z,91.08
2017-05-18T02:40:43.198Z,91.18
2017-05-18T02:41:54.216Z,91.18
2017-05-18T02:43:05.273Z,91.08
2017-05-18T02:44:16.492Z,92.05
2017-05-18T02:45:27.504Z,92.05
2017-05-18T02:46:38.724Z,91.95
2017-05-18T02:47:49.933Z,91.56
2017-05-18T02:49:01.407Z,91.56
2017-05-18T02:50:12.469Z,91.9
2017-05-18T02:51:23.678Z,92.86
2017-05-18T02:52:34.681Z,91.95
2017-05-18T02:53:45.701Z,91.66
2017-05-18T02:54:56.772Z,91.37
2017-05-18T02:56:07.855Z,91.18
2017-05-18T02:57:18.876Z,91.56
2017-05-18T02:58:29.929Z,91.47
2017-05-18T02:59:41.150Z,91.66
2017-05-18T03:00:52.170Z,91.95
2017-05-18T03:02:03.375Z,91.9
2017-05-18T03:03:14.398Z,91.85
2017-05-18T03:04:25.421Z,92
2017-05-18T03:05:36.484Z,93.39
2017-05-18T03:06:47.546Z,92.81
2017-05-18T03:07:58.766Z,93.49
2017-05-18T03:09:09.785Z,92.43
2017-05-18T03:10:20.822Z,92.91
2017-05-18T03:11:31.880Z,93.73
2017-05-18T03:12:42.896Z,93.58
2017-05-18T03:13:53.924Z,93.19
2017-05-18T03:15:04.947Z,93.05
2017-05-18T03:16:16.158Z,92.19
2017-05-18T03:17:27.220Z,92.62
2017-05-18T03:18:38.241Z,93.96
2017-05-18T03:19:49.255Z,93.39
2017-05-18T03:21:00.279Z,93.19
2017-05-18T03:22:11.286Z,93.96
2017-05-18T03:23:22.348Z,92.77
2017-05-18T03:24:33.375Z,93.01
2017-05-18T03:25:44.401Z,93.1
2017-05-18T03:26:55.432Z,94.06
2017-05-18T03:28:06.447Z,92.81
2017-05-18T03:29:17.984Z,93.19
2017-05-18T03:30:29.004Z,92.19
2017-05-18T03:31:40.016Z,92.19
2017-05-18T03:32:51.223Z,91.52
2017-05-18T03:34:02.244Z,93.25
2017-05-18T03:35:13.303Z,92.48
2017-05-18T03:36:24.320Z,92.38
2017-05-18T03:37:35.337Z,93.25
2017-05-18T03:38:46.357Z,92.67
2017-05-18T03:39:57.579Z,93.25
2017-05-18T03:41:08.649Z,92.1
2017-05-18T03:42:19.669Z,93.54
2017-05-18T03:43:30.680Z,92.38
2017-05-18T03:44:41.691Z,92.86
2017-05-18T03:45:52.908Z,93.92
2017-05-18T03:47:03.990Z,92.77
2017-05-18T03:48:15.010Z,93.92
2017-05-18T03:49:26.039Z,92.57
2017-05-18T03:50:37.068Z,92.19
2017-05-18T03:51:48.084Z,92.67
2017-05-18T03:52:59.159Z,93.05
2017-05-18T03:54:10.240Z,92.1
2017-05-18T03:55:21.312Z,92.77
2017-05-18T03:56:32.529Z,92.38
2017-05-18T03:57:43.755Z,92.48
2017-05-18T03:58:54.826Z,91.81
2017-05-18T04:00:05.849Z,93.25
2017-05-18T04:01:16.872Z,92.1
2017-05-18T04:02:27.881Z,91.71
2017-05-18T04:03:38.903Z,92.1
2017-05-18T04:04:50.176Z,92
2017-05-18T04:06:01.193Z,91.9
2017-05-18T04:07:12.820Z,91.61
2017-05-18T04:08:23.843Z,91.71
2017-05-18T04:09:34.867Z,92.19
2017-05-18T04:10:45.877Z,92.19
2017-05-18T04:11:57.099Z,92.1
2017-05-18T04:13:08.112Z,91.9
2017-05-18T04:14:19.188Z,92.48
2017-05-18T04:15:30.264Z,92
2017-05-18T04:16:41.485Z,91.42
2017-05-18T04:17:52.505Z,91.33
2017-05-18T04:19:03.511Z,91.66
2017-05-18T04:20:14.520Z,91.08
2017-05-18T04:21:25.795Z,91.08
2017-05-18T04:22:36.801Z,90.89
2017-05-18T04:23:47.819Z,90.55
2017-05-18T04:24:58.840Z,89.98
2017-05-18T04:26:09.860Z,89.44
2017-05-18T04:27:21.131Z,88.04
2017-05-18T04:28:32.151Z,87.22
2017-05-18T04:29:43.189Z,86.98
2017-05-18T04:30:54.405Z,86.15
2017-05-18T04:32:05.637Z,85.19
2017-05-18T04:33:16.693Z,85.13
2017-05-18T04:34:27.711Z,84.55
2017-05-18T04:35:38.731Z,84.84
2017-05-18T04:36:49.954Z,84.31
2017-05-18T04:38:01.040Z,84.89
2017-05-18T04:39:12.306Z,84.5
2017-05-18T04:40:23.532Z,85.75
2017-05-18T04:41:34.748Z,84.17
2017-05-18T04:42:45.771Z,84.84
2017-05-18T04:43:56.998Z,84.55
2017-05-18T04:45:08.075Z,85.23
2017-05-18T04:46:19.100Z,84.46
2017-05-18T04:47:30.122Z,84.11
2017-05-18T04:48:41.351Z,83.83
2017-05-18T04:49:52.374Z,82.48
2017-05-18T04:51:03.463Z,81.9
2017-05-18T04:52:14.510Z,81.84
2017-05-18T04:53:25.537Z,82.23
2017-05-18T04:54:36.566Z,82.61
2017-05-18T04:55:47.592Z,83.05
2017-05-18T04:56:58.654Z,81.6
2017-05-18T04:58:09.869Z,81.8
2017-05-18T04:59:20.885Z,80.83
2017-05-18T05:00:31.916Z,81.93
2017-05-18T05:01:42.954Z,83
2017-05-18T05:02:54.023Z,83.29
2017-05-18T05:04:05.050Z,82.9
2017-05-18T05:05:16.119Z,82.71
2017-05-18T05:06:27.335Z,82.42
2017-05-18T05:07:38.415Z,82.03
2017-05-18T05:08:49.487Z,82.13
2017-05-18T05:10:00.519Z,83.58
2017-05-18T05:11:11.765Z,82.61
2017-05-18T05:12:22.783Z,81.93
2017-05-18T05:13:34.212Z,83.39
2017-05-18T05:14:45.300Z,82.03
2017-05-18T05:15:56.319Z,80.91
2017-05-18T05:17:07.349Z,80.82
2017-05-18T05:18:18.375Z,80.18
2017-05-18T05:19:29.401Z,81.05
2017-05-18T05:20:40.422Z,80.38
2017-05-18T05:21:51.439Z,80.76
2017-05-18T05:23:02.466Z,81.96
2017-05-18T05:24:13.501Z,80.08
2017-05-18T05:25:24.627Z,79.31
2017-05-18T05:26:35.645Z,81.92
2017-05-18T05:27:46.674Z,80.95
2017-05-18T05:28:57.913Z,82.07
2017-05-18T05:30:08.942Z,81.2
2017-05-18T05:31:20.017Z,81.59
2017-05-18T05:32:31.040Z,81.78
2017-05-18T05:33:42.059Z,80.78
2017-05-18T05:34:53.081Z,81.93
2017-05-18T05:36:04.112Z,82.51
2017-05-18T05:37:15.446Z,83.39
2017-05-18T05:38:26.683Z,83.29
2017-05-18T05:39:37.706Z,82.9
2017-05-18T05:40:48.732Z,83.44
2017-05-18T05:41:59.759Z,84.11
2017-05-18T05:43:10.835Z,84.21
2017-05-18T05:44:21.850Z,83.92
2017-05-18T05:45:33.092Z,84.21
2017-05-18T05:46:44.125Z,83.92
2017-05-18T05:47:55.145Z,85.37
2017-05-18T05:49:06.224Z,85.27
2017-05-18T05:50:17.248Z,83.05
2017-05-18T05:51:28.463Z,84.31
2017-05-18T05:52:39.683Z,83.63
2017-05-18T05:53:50.706Z,83.29
2017-05-18T05:55:01.781Z,83.58
2017-05-18T05:56:12.801Z,82.81
2017-05-18T05:57:23.823Z,82.03
2017-05-18T05:58:34.842Z,82.13
2017-05-18T05:59:45.869Z,81.74
2017-05-18T06:00:57.096Z,81.68
2017-05-18T06:02:08.117Z,81.4
2017-05-18T06:03:19.140Z,79.7
2017-05-18T06:04:30.213Z,80.47
2017-05-18T06:05:41.586Z,80.86
2017-05-18T06:06:52.605Z,80.66
2017-05-18T06:08:03.633Z,80.8
2017-05-18T06:09:14.670Z,79.83
2017-05-18T06:10:25.703Z,80.9
2017-05-18T06:11:36.993Z,80.8
2017-05-18T06:12:48.007Z,81.09
2017-05-18T06:13:59.034Z,81.19
2017-05-18T06:15:10.059Z,80.61
2017-05-18T06:16:21.070Z,80.76
2017-05-18T06:17:32.144Z,80.66
2017-05-18T06:18:43.195Z,80.95
2017-05-18T06:19:54.226Z,80.76
2017-05-18T06:21:05.250Z,80.66
2017-05-18T06:22:16.273Z,80.22
2017-05-18T06:23:27.333Z,80.12
2017-05-18T06:24:38.367Z,79.83
2017-05-18T06:25:49.385Z,79.45
2017-05-18T06:27:00.409Z,80.26
2017-05-18T06:28:11.460Z,78.81
2017-05-18T06:29:22.535Z,78.61
2017-05-18T06:30:33.565Z,77.88
2017-05-18T06:31:44.588Z,78.66
2017-05-18T06:32:55.817Z,77.53
2017-05-18T06:34:06.840Z,77.14
2017-05-18T06:35:17.928Z,77.28
2017-05-18T06:36:28.954Z,78.31
2017-05-18T06:37:40.179Z,78.89
2017-05-18T06:38:51.408Z,80.2
2017-05-18T06:40:02.483Z,79.1
2017-05-18T06:41:13.556Z,81.13
2017-05-18T06:42:24.573Z,81.04
2017-05-18T06:43:35.612Z,80.36
2017-05-18T06:44:46.847Z,79.78
2017-05-18T06:45:57.868Z,79.04
2017-05-18T06:47:09.051Z,79.91
2017-05-18T06:48:20.071Z,80.2
2017-05-18T06:49:31.097Z,79.57
2017-05-18T06:50:42.119Z,79.82
2017-05-18T06:51:53.348Z,79.04
2017-05-18T06:53:04.424Z,79.72
2017-05-18T06:54:15.451Z,80.01
2017-05-18T06:55:26.478Z,79.43
2017-05-18T06:56:37.501Z,80.2
2017-05-18T06:57:48.532Z,80.2
2017-05-18T06:58:59.697Z,81.52
2017-05-18T07:00:10.715Z,80.4
2017-05-18T07:01:21.761Z,81.65
2017-05-18T07:02:32.993Z,80.79
2017-05-18T07:03:44.029Z,79.82
2017-05-18T07:04:55.210Z,78.99
2017-05-18T07:06:06.239Z,78.21
2017-05-18T07:07:17.269Z,77.76
2017-05-18T07:08:28.292Z,76.45
2017-05-18T07:09:39.316Z,76.1
2017-05-18T07:10:50.349Z,77.94
2017-05-18T07:12:01.360Z,77.9
2017-05-18T07:13:12.588Z,77.42
2017-05-18T07:14:23.626Z,78.67
2017-05-18T07:15:34.705Z,78.92
2017-05-18T07:16:45.741Z,79.02
2017-05-18T07:17:56.776Z,78.64
2017-05-18T07:19:07.805Z,79.02
2017-05-18T07:20:18.816Z,79.7
2017-05-18T07:21:29.889Z,79.02
2017-05-18T07:22:40.914Z,79.02
2017-05-18T07:23:51.945Z,78.54
2017-05-18T07:25:03.173Z,78.29
2017-05-18T07:26:14.385Z,78.09
2017-05-18T07:27:25.659Z,79.45
2017-05-18T07:28:36.704Z,78.38
2017-05-18T07:29:47.735Z,78.87
2017-05-18T07:30:58.769Z,80.19
2017-05-18T07:32:09.995Z,80.38
2017-05-18T07:33:21.268Z,81.3
2017-05-18T07:34:32.496Z,80.73
2017-05-18T07:35:43.707Z,82.33
2017-05-18T07:36:54.737Z,82.23
2017-05-18T07:38:05.782Z,83.98
2017-05-18T07:39:16.850Z,83.55
2017-05-18T07:40:27.877Z,83.45
2017-05-18T07:41:38.897Z,83.89
2017-05-18T07:42:49.916Z,85.25
2017-05-18T07:44:00.941Z,86.6
2017-05-18T07:45:12.017Z,86.65
2017-05-18T07:46:23.252Z,87.48
2017-05-18T07:47:34.281Z,88.73
2017-05-18T07:48:45.500Z,87.96
2017-05-18T07:49:56.527Z,89.51
2017-05-18T07:51:07.599Z,90.09
2017-05-18T07:52:18.617Z,89.99
2017-05-18T07:53:29.636Z,89.56
2017-05-18T07:54:40.659Z,89.56
2017-05-18T07:55:51.691Z,91.11
2017-05-18T07:57:02.748Z,91.11
2017-05-18T07:58:13.971Z,91.49
2017-05-18T07:59:25.185Z,91.11
2017-05-18T08:00:36.201Z,92.94
2017-05-18T08:01:47.231Z,92.74
2017-05-18T08:02:58.497Z,91.11
2017-05-18T08:04:09.518Z,91.11
2017-05-18T08:05:20.739Z,90.67
2017-05-18T08:06:31.759Z,91.92
2017-05-18T08:07:42.792Z,90.77
2017-05-18T08:08:53.866Z,93.27
2017-05-18T08:10:04.942Z,92.79
2017-05-18T08:11:16.005Z,91.25
2017-05-18T08:12:27.075Z,93.18
2017-05-18T08:13:38.104Z,91.73
2017-05-18T08:14:49.183Z,91.83
2017-05-18T08:16:00.202Z,91.35
2017-05-18T08:17:11.233Z,91.25
2017-05-18T08:18:22.506Z,91.92
2017-05-18T08:19:33.542Z,92.21
2017-05-18T08:20:44.764Z,92.69
2017-05-18T08:21:55.981Z,92.89
2017-05-18T08:23:06.994Z,91.83
2017-05-18T08:24:18.033Z,90.91
2017-05-18T08:25:29.300Z,93.47
2017-05-18T08:26:40.319Z,91.88
2017-05-18T08:27:51.334Z,92.94
2017-05-18T08:29:02.359Z,91.39
2017-05-18T08:30:13.591Z,92.07
2017-05-18T08:31:24.660Z,93.52
2017-05-18T08:32:35.873Z,92.26
2017-05-18T08:33:47.109Z,94.96
2017-05-18T08:34:58.336Z,93.23
2017-05-18T08:36:09.350Z,92.65
2017-05-18T08:37:20.455Z,92.36
2017-05-18T08:38:31.479Z,92.26
2017-05-18T08:39:42.694Z,92.16
2017-05-18T08:40:53.714Z,92.74
2017-05-18T08:42:04.739Z,92.16
2017-05-18T08:43:15.803Z,93.42
2017-05-18T08:44:27.024Z,92.65
2017-05-18T08:45:38.048Z,92.65
2017-05-18T08:46:49.270Z,92.46
2017-05-18T08:48:00.308Z,92.79
2017-05-18T08:49:11.396Z,92.79
2017-05-18T08:50:22.412Z,92.11
2017-05-18T08:51:33.420Z,91.97
2017-05-18T08:52:44.641Z,90.71
2017-05-18T08:53:55.871Z,90.61
2017-05-18T08:55:07.151Z,90.66
2017-05-18T08:56:18.169Z,88.09
2017-05-18T08:57:29.315Z,86.25
2017-05-18T08:58:40.340Z,85.91
2017-05-18T08:59:51.564Z,85.24
2017-05-18T09:01:02.637Z,86.01
2017-05-18T09:02:13.709Z,85.52
2017-05-18T09:03:24.730Z,85.42
2017-05-18T09:04:35.756Z,87.55
2017-05-18T09:05:46.787Z,87.23
2017-05-18T09:06:57.863Z,87.23
2017-05-18T09:08:09.087Z,88.63
2017-05-18T09:09:20.117Z,88.63
2017-05-18T09:10:31.152Z,88.43
2017-05-18T09:11:42.372Z,88.24
2017-05-18T09:12:53.445Z,87.08
2017-05-18T09:14:04.465Z,87.41
2017-05-18T09:15:15.497Z,88.39
2017-05-18T09:16:26.733Z,86.2
2017-05-18T09:17:37.748Z,83.69
2017-05-18T09:18:48.839Z,84.69
2017-05-18T09:19:59.864Z,83.83
2017-05-18T09:21:10.891Z,84.69
2017-05-18T09:22:21.915Z,84.21
2017-05-18T09:23:33.181Z,84.01
2017-05-18T09:24:44.248Z,85.47
2017-05-18T09:25:55.307Z,85.96
2017-05-18T09:27:06.527Z,85.66
2017-05-18T09:28:17.551Z,84.99
2017-05-18T09:29:28.576Z,85.96
2017-05-18T09:30:39.802Z,85.47
2017-05-18T09:31:51.036Z,86.15
2017-05-18T09:33:02.068Z,85.76
2017-05-18T09:34:13.090Z,85.18
2017-05-18T09:35:24.371Z,84.11
2017-05-18T09:36:35.387Z,85.28
2017-05-18T09:37:46.418Z,85.47
2017-05-18T09:38:57.495Z,84.31
2017-05-18T09:40:08.526Z,84.69
2017-05-18T09:41:19.811Z,84.6
2017-05-18T09:42:30.918Z,84.01
2017-05-18T09:43:41.957Z,84.55
2017-05-18T09:44:52.970Z,84.64
2017-05-18T09:46:04.002Z,83.48
2017-05-18T09:47:15.089Z,82.8
2017-05-18T09:48:26.124Z,83
2017-05-18T09:49:37.361Z,82.03
2017-05-18T09:50:48.396Z,83.58
2017-05-18T09:51:59.446Z,82.75
2017-05-18T09:53:10.524Z,82.07
2017-05-18T09:54:21.748Z,83.13
2017-05-18T09:55:32.768Z,83.86
2017-05-18T09:56:43.796Z,84.78
2017-05-18T09:57:54.810Z,82.45
2017-05-18T09:59:06.087Z,82.84
2017-05-18T10:00:17.120Z,81.52
2017-05-18T10:01:28.151Z,83.17
2017-05-18T10:02:39.384Z,81.33
2017-05-18T10:03:50.478Z,81.66
2017-05-18T10:05:01.575Z,82.01
2017-05-18T10:06:12.614Z,82.1
2017-05-18T10:07:23.658Z,83.17
2017-05-18T10:08:34.700Z,83.23
2017-05-18T10:09:45.737Z,83.23
2017-05-18T10:10:56.970Z,82.84
2017-05-18T10:12:07.994Z,83.62
2017-05-18T10:13:19.018Z,83.38
2017-05-18T10:14:30.051Z,83.18
2017-05-18T10:15:41.122Z,84.06
2017-05-18T10:16:52.139Z,83.83
2017-05-18T10:18:03.370Z,83.48
2017-05-18T10:19:14.412Z,83.28
2017-05-18T10:20:25.645Z,83.86
2017-05-18T10:21:36.708Z,85.51
2017-05-18T10:22:47.733Z,83.83
2017-05-18T10:23:58.771Z,83.92
2017-05-18T10:25:09.989Z,84.11
2017-05-18T10:26:21.259Z,84.41
2017-05-18T10:27:32.336Z,85.08
2017-05-18T10:28:43.430Z,85.91
2017-05-18T10:29:54.462Z,86.98
2017-05-18T10:31:05.515Z,86.83
2017-05-18T10:32:16.747Z,86.35
2017-05-18T10:33:27.820Z,86.1
2017-05-18T10:34:38.852Z,86.69
2017-05-18T10:35:49.878Z,86.49
2017-05-18T10:37:00.906Z,85.52
2017-05-18T10:38:11.937Z,86.34
2017-05-18T10:39:23.011Z,84.99
2017-05-18T10:40:34.039Z,85.08
2017-05-18T10:41:45.053Z,84.79
2017-05-18T10:42:56.282Z,84.99
2017-05-18T10:44:07.302Z,84.79
2017-05-18T10:45:18.383Z,84.41
2017-05-18T10:46:29.399Z,84.11
2017-05-18T10:47:40.433Z,84.11
2017-05-18T10:48:51.469Z,84.41
2017-05-18T10:50:02.510Z,84.5
2017-05-18T10:51:13.583Z,84.99
2017-05-18T10:52:24.676Z,86.05
2017-05-18T10:53:35.714Z,85.57
2017-05-18T10:54:46.738Z,85.57
2017-05-18T10:55:57.772Z,84.99
2017-05-18T10:57:09.050Z,84.41
2017-05-18T10:58:20.274Z,85.28
2017-05-18T10:59:31.306Z,84.35
2017-05-18T11:00:42.331Z,84.64
2017-05-18T11:01:53.348Z,84.55
2017-05-18T11:03:04.421Z,86.38
2017-05-18T11:04:15.520Z,84.74
2017-05-18T11:05:26.552Z,84.93
2017-05-18T11:06:37.771Z,85.41
2017-05-18T11:07:48.803Z,85.03
2017-05-18T11:08:59.884Z,84.83
2017-05-18T11:10:10.928Z,84.06
2017-05-18T11:11:21.959Z,84.25
2017-05-18T11:12:32.979Z,84.74
2017-05-18T11:13:44.025Z,85.03
2017-05-18T11:14:55.117Z,85.03
2017-05-18T11:16:06.154Z,85.76
2017-05-18T11:17:17.379Z,86.05
2017-05-18T11:18:28.415Z,86.15
2017-05-18T11:19:39.443Z,85.96
2017-05-18T11:20:50.670Z,85.47
2017-05-18T11:22:01.685Z,85.86
2017-05-18T11:23:12.709Z,85.57
2017-05-18T11:24:23.943Z,85.28
2017-05-18T11:25:35.015Z,86.15
2017-05-18T11:26:46.042Z,86.05
2017-05-18T11:27:57.090Z,85.96
2017-05-18T11:29:08.321Z,86.05
2017-05-18T11:30:19.347Z,86.34
2017-05-18T11:31:30.625Z,86.15
2017-05-18T11:32:41.649Z,86.54
2017-05-18T11:33:52.888Z,86.15
2017-05-18T11:35:04.105Z,86.63
2017-05-18T11:36:15.149Z,86.54
2017-05-18T11:37:26.220Z,86.82
2017-05-18T11:38:37.499Z,86.63
2017-05-18T11:39:48.527Z,86.88
2017-05-18T11:40:59.563Z,87.55
2017-05-18T11:42:10.569Z,87.55
2017-05-18T11:43:21.650Z,87.36
2017-05-18T11:44:32.875Z,87.95
2017-05-18T11:45:43.884Z,87.95
2017-05-18T11:46:54.912Z,87.46
2017-05-18T11:48:05.943Z,87.75
2017-05-18T11:49:17.096Z,87.36
2017-05-18T11:50:28.408Z,87.27
2017-05-18T11:51:39.437Z,87.65
2017-05-18T11:52:50.472Z,88.04
2017-05-18T11:54:01.489Z,87.9
2017-05-18T11:55:12.575Z,87.81
2017-05-18T11:56:23.600Z,88.43
2017-05-18T11:57:34.621Z,88.48
2017-05-18T11:58:45.654Z,88.48
2017-05-18T11:59:56.673Z,89.06
2017-05-18T12:01:07.739Z,89.25
2017-05-18T12:02:18.952Z,88.96
2017-05-18T12:03:29.975Z,89.54
2017-05-18T12:04:41.000Z,89.69
2017-05-18T12:05:52.228Z,89.31
2017-05-18T12:07:03.512Z,89.4
2017-05-18T12:08:14.550Z,89.69
2017-05-18T12:09:25.583Z,90.03
2017-05-18T12:10:36.599Z,89.84
2017-05-18T12:11:47.621Z,90.95
2017-05-18T12:12:58.687Z,90.42
2017-05-18T12:14:09.713Z,91.09
2017-05-18T12:15:20.731Z,91.19
2017-05-18T12:16:31.747Z,91
2017-05-18T12:17:42.768Z,90.91
2017-05-18T12:18:53.856Z,91.77
2017-05-18T12:20:04.875Z,91.58
2017-05-18T12:21:15.939Z,91.19
2017-05-18T12:22:26.963Z,90.81
2017-05-18T12:23:37.992Z,91.19
2017-05-18T12:24:49.007Z,91.39
2017-05-18T12:26:00.022Z,91.09
2017-05-18T12:27:11.044Z,91.77
2017-05-18T12:28:22.063Z,91.58
2017-05-18T12:29:33.130Z,91.63
2017-05-18T12:30:44.156Z,92.11
2017-05-18T12:31:55.376Z,92.02
2017-05-18T12:33:06.397Z,92.41
2017-05-18T12:34:17.467Z,91.92
2017-05-18T12:35:28.539Z,92.02
2017-05-18T12:36:39.548Z,92.98
2017-05-18T12:37:50.563Z,93.08
2017-05-18T12:39:01.592Z,92.84
2017-05-18T12:40:12.635Z,93.8
2017-05-18T12:41:23.698Z,93.71
2017-05-18T12:42:34.902Z,94.2
2017-05-18T12:43:46.115Z,94.68
2017-05-18T12:44:57.125Z,95.64
2017-05-18T12:46:08.140Z,97.96
2017-05-18T12:47:19.212Z,98.87
2017-05-18T12:48:30.232Z,99.65
2017-05-18T12:49:41.244Z,99.99
2017-05-18T12:50:52.280Z,99.99
2017-05-18T12:52:03.309Z,99.99
2017-05-18T12:53:14.383Z,99.99
2017-05-18T12:54:25.403Z,99.99
2017-05-18T12:55:36.687Z,99.99
2017-05-18T12:56:47.696Z,99.99
2017-05-18T12:57:58.717Z,99.99
2017-05-18T12:59:09.999Z,99.99
2017-05-18T13:00:21.223Z,99.99
2017-05-18T13:01:32.243Z,99.99
2017-05-18T13:02:43.469Z,99.99
2017-05-18T13:03:54.494Z,99.99
2017-05-18T13:05:05.570Z,99.99
2017-05-18T13:06:16.785Z,99.99
2017-05-18T13:07:28.003Z,99.99
2017-05-18T13:08:39.041Z,99.99
2017-05-18T13:09:50.072Z,99.99
2017-05-18T13:11:01.303Z,99.99
2017-05-18T13:12:12.313Z,99.99
2017-05-18T13:13:23.330Z,99.99
2017-05-18T13:14:34.346Z,99.99
2017-05-18T13:15:45.412Z,99.99
2017-05-18T13:16:56.439Z,99.99
2017-05-18T13:18:07.720Z,99.99
2017-05-18T13:19:18.731Z,99.99
2017-05-18T13:20:29.749Z,99.99
2017-05-18T13:21:40.816Z,99.99
2017-05-18T13:22:52.039Z,99.99
2017-05-18T13:24:03.063Z,99.99
2017-05-18T13:25:14.290Z,99.99
2017-05-18T13:26:25.308Z,99.99
2017-05-18T13:27:36.326Z,99.99
2017-05-18T13:28:47.540Z,99.99
2017-05-18T13:29:58.556Z,99.99
2017-05-18T13:31:09.572Z,99.99
2017-05-18T13:32:20.592Z,99.99
2017-05-18T13:33:31.653Z,99.99
2017-05-18T13:34:42.670Z,99.99
2017-05-18T13:35:53.708Z,99.99
2017-05-18T13:37:04.732Z,99.99
2017-05-18T13:38:15.790Z,99.99
2017-05-18T13:39:27.079Z,99.99
2017-05-18T13:40:38.099Z,99.99
2017-05-18T13:41:49.315Z,99.99
2017-05-18T13:43:00.331Z,99.99
2017-05-18T13:44:11.404Z,99.99
2017-05-18T13:45:22.419Z,99.99
2017-05-18T13:46:33.430Z,99.99
2017-05-18T13:47:44.446Z,99.99
2017-05-18T13:48:55.465Z,99.99
2017-05-18T13:50:06.682Z,99.99
2017-05-18T13:51:17.702Z,99.99
2017-05-18T13:52:28.912Z,99.99
2017-05-18T13:53:39.934Z,99.99
2017-05-18T13:54:50.955Z,99.99
2017-05-18T13:56:02.226Z,99.99
2017-05-18T13:57:13.242Z,99.99
2017-05-18T13:58:24.472Z,99.99
2017-05-18T13:59:35.490Z,99.99
2017-05-18T14:00:46.505Z,99.99
2017-05-18T14:01:57.577Z,99.99
2017-05-18T14:03:08.804Z,99.99
2017-05-18T14:04:19.811Z,99.99
2017-05-18T14:05:30.817Z,99.99
2017-05-18T14:06:41.826Z,99.99
2017-05-18T14:07:52.898Z,99.99
2017-05-18T14:09:03.928Z,99.99
2017-05-18T14:10:14.950Z,99.99
2017-05-18T14:11:26.163Z,99.99
2017-05-18T14:12:37.197Z,99.99
2017-05-18T14:13:48.270Z,99.99
2017-05-18T14:14:59.294Z,99.99
2017-05-18T14:16:10.318Z,99.99
2017-05-18T14:17:21.535Z,99.99
2017-05-18T14:18:32.554Z,99.99
2017-05-18T14:19:43.631Z,99.99
2017-05-18T14:20:54.653Z,99.99
2017-05-18T14:22:05.680Z,99.99
2017-05-18T14:23:16.710Z,99.99
2017-05-18T14:24:27.735Z,99.99
2017-05-18T14:25:38.808Z,99.99
2017-05-18T14:26:49.831Z,99.99
2017-05-18T14:28:00.840Z,99.99
2017-05-18T14:29:11.858Z,99.99
2017-05-18T14:30:22.870Z,99.99
2017-05-18T14:31:33.950Z,99.99
2017-05-18T14:32:44.975Z,99.99
2017-05-18T14:33:55.997Z,99.99
2017-05-18T14:35:07.024Z,99.99
2017-05-18T14:36:18.050Z,99.99
2017-05-18T14:37:29.111Z,99.99
2017-05-18T14:38:40.366Z,99.99
2017-05-18T14:39:51.394Z,99.99
2017-05-18T14:41:02.406Z,99.99
2017-05-18T14:42:13.454Z,99.99
2017-05-18T14:43:24.521Z,99.99
2017-05-18T14:44:35.547Z,99.99
2017-05-18T14:45:46.563Z,99.99
2017-05-18T14:46:57.586Z,99.99
2017-05-18T14:48:08.608Z,99.99
2017-05-18T14:49:19.681Z,99.99
2017-05-18T14:50:30.710Z,99.99
2017-05-18T14:51:41.729Z,99.99
2017-05-18T14:52:52.758Z,99.99
2017-05-18T14:54:03.839Z,99.99
2017-05-18T14:55:14.918Z,99.99
2017-05-18T14:56:25.942Z,99.99
2017-05-18T14:57:36.948Z,99.99
2017-05-18T14:58:47.966Z,99.99
2017-05-18T14:59:58.970Z,99.69
2017-05-18T15:01:10.026Z,99.99
2017-05-18T15:02:21.045Z,99.99
2017-05-18T15:03:32.266Z,99.88
2017-05-18T15:04:43.543Z,99.99
2017-05-18T15:05:54.569Z,99.99
2017-05-18T15:07:05.833Z,99.88
2017-05-18T15:08:16.839Z,99.99
2017-05-18T15:09:28.067Z,98.97
2017-05-18T15:10:39.095Z,97.62
2017-05-18T15:11:50.114Z,97.52
2017-05-18T15:13:01.170Z,99.35
2017-05-18T15:14:12.399Z,99.07
2017-05-18T15:15:23.419Z,99.55
2017-05-18T15:16:34.445Z,98.39
2017-05-18T15:17:45.459Z,99.45